createdAt,value
2018-02-10T00:00:59.024Z,-1.2
2018-02-10T00:02:18.852Z,-1.3
2018-02-10T00:03:38.729Z,-1.2
2018-02-10T00:05:06.200Z,-1.2
2018-02-10T00:06:26.109Z,-1.2
2018-02-10T00:07:51.033Z,-1.2
2018-02-10T00:09:13.432Z,-1.2
2018-02-10T00:10:35.808Z,-1.2
2018-02-10T00:11:55.663Z,-1.2
2018-02-10T00:13:23.091Z,-1.2
2018-02-10T00:14:45.488Z,-1.2
2018-02-10T00:16:20.538Z,-1.2
2018-02-10T00:17:40.431Z,-1.2
2018-02-10T00:19:00.261Z,-1.1
2018-02-10T00:20:22.607Z,-1.1
2018-02-10T00:21:50.052Z,-1.2
2018-02-10T00:23:09.884Z,-1.2
2018-02-10T00:24:34.784Z,-1.2
2018-02-10T00:25:59.676Z,-1.2
2018-02-10T00:27:22.033Z,-1.2
2018-02-10T00:28:44.404Z,-1.2
2018-02-10T00:30:04.262Z,-1.2
2018-02-10T00:31:24.112Z,-1.1
2018-02-10T00:32:43.937Z,-1.2
2018-02-10T00:34:08.897Z,-1.2
2018-02-10T00:35:31.296Z,-1.2
2018-02-10T00:36:53.678Z,-1.2
2018-02-10T00:38:16.071Z,-1.1
2018-02-10T00:39:41.024Z,-1.1
2018-02-10T00:41:00.908Z,-1.1
2018-02-10T00:42:20.773Z,-1
2018-02-10T00:43:50.742Z,-1
2018-02-10T00:45:10.563Z,-1
2018-02-10T00:46:32.981Z,-1
2018-02-10T00:48:10.547Z,-0.9
2018-02-10T00:49:30.439Z,-0.9
2018-02-10T00:50:50.271Z,-1
2018-02-10T00:52:22.749Z,-0.9
2018-02-10T00:53:42.584Z,-0.8
2018-02-10T00:55:02.402Z,-0.9
2018-02-10T00:56:22.225Z,-0.9
2018-02-10T00:57:44.588Z,-0.9
2018-02-10T00:59:17.085Z,-0.9
2018-02-10T01:00:44.513Z,-0.9
2018-02-10T01:02:04.397Z,-1
2018-02-10T01:03:26.760Z,-1
2018-02-10T01:04:46.616Z,-1.1
2018-02-10T01:06:08.980Z,-1.2
2018-02-10T01:07:28.934Z,-1.2
2018-02-10T01:08:48.765Z,-1.2
2018-02-10T01:10:11.192Z,-1.2
2018-02-10T01:11:31.054Z,-1.3
2018-02-10T01:12:50.940Z,-1.3
2018-02-10T01:14:15.863Z,-1.2
2018-02-10T01:15:50.900Z,-1.2
2018-02-10T01:17:10.739Z,-1.2
2018-02-10T01:18:30.593Z,-1.2
2018-02-10T01:20:00.601Z,-1.2
2018-02-10T01:21:20.483Z,-1.2
2018-02-10T01:22:47.920Z,-1.1
2018-02-10T01:24:07.746Z,-1.1
2018-02-10T01:25:35.169Z,-1.1
2018-02-10T01:27:02.615Z,-1.2
2018-02-10T01:28:27.494Z,-1.2
2018-02-10T01:29:49.942Z,-1.2
2018-02-10T01:31:12.291Z,-1.2
2018-02-10T01:32:44.760Z,-1.2
2018-02-10T01:34:07.116Z,-1.2
2018-02-10T01:35:26.943Z,-1.2
2018-02-10T01:36:54.372Z,-1.1
2018-02-10T01:38:16.778Z,-1.1
2018-02-10T01:39:44.213Z,-1.1
2018-02-10T01:41:04.080Z,-1
2018-02-10T01:42:23.892Z,-1
2018-02-10T01:43:43.719Z,-1
2018-02-10T01:45:03.552Z,-1
2018-02-10T01:46:23.384Z,-1
2018-02-10T01:47:45.760Z,-1
2018-02-10T01:49:08.115Z,-1
2018-02-10T01:50:27.945Z,-1
2018-02-10T01:51:47.906Z,-1
2018-02-10T01:53:07.777Z,-1
2018-02-10T01:54:27.608Z,-0.9
2018-02-10T01:55:49.968Z,-0.9
2018-02-10T01:57:09.793Z,-0.9
2018-02-10T01:58:32.159Z,-1
2018-02-10T01:59:54.514Z,-1
2018-02-10T02:01:19.465Z,-0.9
2018-02-10T02:02:39.357Z,-0.9
2018-02-10T02:03:59.225Z,-0.8
2018-02-10T02:05:21.618Z,-0.8
2018-02-10T02:06:41.515Z,-0.8
2018-02-10T02:08:01.527Z,-0.9
2018-02-10T02:09:21.441Z,-0.9
2018-02-10T02:10:41.308Z,-0.9
2018-02-10T02:12:01.168Z,-0.9
2018-02-10T02:13:21.108Z,-0.9
2018-02-10T02:14:53.591Z,-0.9
2018-02-10T02:16:13.420Z,-0.9
2018-02-10T02:17:33.297Z,-0.9
2018-02-10T02:18:55.679Z,-0.9
2018-02-10T02:20:18.069Z,-0.9
2018-02-10T02:21:40.480Z,-1
2018-02-10T02:23:00.354Z,-1
2018-02-10T02:24:20.222Z,-1
2018-02-10T02:25:40.051Z,-1
2018-02-10T02:27:02.419Z,-1
2018-02-10T02:28:22.284Z,-1
2018-02-10T02:30:15.015Z,-1
2018-02-10T02:31:44.967Z,-1
2018-02-10T02:33:12.454Z,-1.1
2018-02-10T02:34:42.471Z,-1.1
2018-02-10T02:36:02.359Z,-1.2
2018-02-10T02:37:27.233Z,-1.2
2018-02-10T02:38:52.139Z,-1.2
2018-02-10T02:40:11.975Z,-1.2
2018-02-10T02:41:31.864Z,-1.2
2018-02-10T02:42:51.697Z,-1.2
2018-02-10T02:44:11.558Z,-1.2
2018-02-10T02:45:39.000Z,-1.1
2018-02-10T02:47:06.445Z,-1.1
2018-02-10T02:48:28.813Z,-1.1
2018-02-10T02:49:48.648Z,-1.1
2018-02-10T02:51:08.502Z,-1
2018-02-10T02:52:28.361Z,-1
2018-02-10T02:54:03.378Z,-1
2018-02-10T02:55:25.805Z,-1
2018-02-10T02:56:45.630Z,-1
2018-02-10T02:58:18.136Z,-1
2018-02-10T02:59:43.044Z,-1
2018-02-10T03:01:12.991Z,-1
2018-02-10T03:02:40.429Z,-1
2018-02-10T03:04:02.787Z,-1
2018-02-10T03:05:22.608Z,-1
2018-02-10T03:06:42.457Z,-1.1
2018-02-10T03:08:22.531Z,-1.1
2018-02-10T03:09:42.363Z,-1
2018-02-10T03:11:02.234Z,-1
2018-02-10T03:12:27.179Z,-1
2018-02-10T03:13:49.544Z,-0.9
2018-02-10T03:15:09.398Z,-0.9
2018-02-10T03:16:29.227Z,-0.9
2018-02-10T03:17:51.621Z,-0.9
2018-02-10T03:19:11.520Z,-0.9
2018-02-10T03:20:33.886Z,-0.9
2018-02-10T03:21:53.754Z,-0.9
2018-02-10T03:23:21.193Z,-0.9
2018-02-10T03:24:46.113Z,-0.9
2018-02-10T03:26:08.472Z,-1
2018-02-10T03:27:28.358Z,-1
2018-02-10T03:28:48.192Z,-1
2018-02-10T03:30:08.030Z,-1
2018-02-10T03:31:27.914Z,-1
2018-02-10T03:32:47.786Z,-1
2018-02-10T03:34:07.603Z,-1
2018-02-10T03:35:29.966Z,-1
2018-02-10T03:36:52.349Z,-1
2018-02-10T03:38:14.726Z,-1
2018-02-10T03:39:34.570Z,-0.9
2018-02-10T03:40:54.401Z,-0.9
2018-02-10T03:42:14.249Z,-0.9
2018-02-10T03:43:39.131Z,-0.9
2018-02-10T03:45:04.081Z,-1
2018-02-10T03:46:23.906Z,-0.9
2018-02-10T03:47:48.835Z,-1
2018-02-10T03:49:08.700Z,-1
2018-02-10T03:50:28.592Z,-0.9
2018-02-10T03:51:48.421Z,-0.9
2018-02-10T03:53:18.400Z,-0.9
2018-02-10T03:54:43.336Z,-0.9
2018-02-10T03:56:03.177Z,-0.9
2018-02-10T03:57:30.655Z,-0.9
2018-02-10T03:58:53.041Z,-0.9
2018-02-10T04:00:12.877Z,-0.9
2018-02-10T04:01:32.713Z,-0.9
2018-02-10T04:02:52.570Z,-1
2018-02-10T04:04:12.411Z,-1
2018-02-10T04:05:32.307Z,-1
2018-02-10T04:06:54.667Z,-1
2018-02-10T04:08:14.489Z,-1
2018-02-10T04:09:36.885Z,-1
2018-02-10T04:10:56.729Z,-1
2018-02-10T04:12:21.654Z,-1
2018-02-10T04:13:46.570Z,-1
2018-02-10T04:15:06.432Z,-1
2018-02-10T04:16:26.282Z,-1.1
2018-02-10T04:17:48.666Z,-1.1
2018-02-10T04:19:11.100Z,-1
2018-02-10T04:20:30.949Z,-1
2018-02-10T04:22:00.950Z,-1
2018-02-10T04:23:25.906Z,-1
2018-02-10T04:24:45.753Z,-1
2018-02-10T04:26:08.128Z,-1
2018-02-10T04:27:27.943Z,-1
2018-02-10T04:28:50.299Z,-1
2018-02-10T04:30:12.707Z,-1
2018-02-10T04:31:32.535Z,-1
2018-02-10T04:32:57.480Z,-1
2018-02-10T04:34:17.354Z,-1
2018-02-10T04:35:37.196Z,-1
2018-02-10T04:36:57.013Z,-1
2018-02-10T04:38:19.399Z,-1
2018-02-10T04:39:39.248Z,-1.1
2018-02-10T04:40:59.093Z,-1
2018-02-10T04:42:18.919Z,-1
2018-02-10T04:43:38.764Z,-1.1
2018-02-10T04:44:58.616Z,-1.1
2018-02-10T04:46:18.436Z,-1.1
2018-02-10T04:47:38.321Z,-1.1
2018-02-10T04:48:58.153Z,-1
2018-02-10T04:50:17.977Z,-1
2018-02-10T04:51:37.829Z,-1
2018-02-10T04:53:02.777Z,-1
2018-02-10T04:54:32.721Z,-1.1
2018-02-10T04:56:02.677Z,-1.1
2018-02-10T04:57:22.513Z,-1.1
2018-02-10T04:58:44.889Z,-1.1
2018-02-10T05:00:07.239Z,-1.1
2018-02-10T05:01:27.121Z,-1
2018-02-10T05:02:46.999Z,-1
2018-02-10T05:04:06.861Z,-1
2018-02-10T05:05:29.231Z,-1
2018-02-10T05:07:01.718Z,-1
2018-02-10T05:08:21.574Z,-1
2018-02-10T05:09:43.929Z,-0.9
2018-02-10T05:11:03.803Z,-0.9
2018-02-10T05:12:26.186Z,-0.9
2018-02-10T05:13:46.046Z,-0.9
2018-02-10T05:15:05.902Z,-0.9
2018-02-10T05:16:28.263Z,-0.9
2018-02-10T05:17:50.635Z,-0.8
2018-02-10T05:19:10.476Z,-0.8
2018-02-10T05:20:30.362Z,-0.7
2018-02-10T05:21:52.731Z,-0.7
2018-02-10T05:23:15.104Z,-0.8
2018-02-10T05:24:39.979Z,-0.8
2018-02-10T05:25:59.796Z,-0.8
2018-02-10T05:27:24.679Z,-0.8
2018-02-10T05:28:49.616Z,-0.9
2018-02-10T05:30:09.466Z,-0.8
2018-02-10T05:31:39.466Z,-0.8
2018-02-10T05:33:01.868Z,-0.8
2018-02-10T05:34:21.703Z,-0.8
2018-02-10T05:35:46.634Z,-0.8
2018-02-10T05:37:14.041Z,-0.7
2018-02-10T05:38:36.440Z,-0.7
2018-02-10T05:39:56.360Z,-0.7
2018-02-10T05:41:28.831Z,-0.6
2018-02-10T05:42:56.290Z,-0.7
2018-02-10T05:44:18.642Z,-0.6
2018-02-10T05:45:41.040Z,-0.6
2018-02-10T05:47:03.394Z,-0.7
2018-02-10T05:48:25.814Z,-0.7
2018-02-10T05:49:45.634Z,-0.7
2018-02-10T05:51:05.524Z,-0.6
2018-02-10T05:52:30.450Z,-0.6
2018-02-10T05:53:50.265Z,-0.6
2018-02-10T05:55:12.625Z,-0.6
2018-02-10T05:56:42.583Z,-0.7
2018-02-10T05:58:04.970Z,-0.6
2018-02-10T05:59:24.824Z,-0.7
2018-02-10T06:00:44.651Z,-0.7
2018-02-10T06:02:12.067Z,-0.7
2018-02-10T06:03:34.463Z,-0.6
2018-02-10T06:04:56.861Z,-0.6
2018-02-10T06:06:16.712Z,-0.6
2018-02-10T06:07:36.600Z,-0.6
2018-02-10T06:08:56.498Z,-0.5
2018-02-10T06:10:16.389Z,-0.5
2018-02-10T06:11:36.241Z,-0.5
2018-02-10T06:12:56.115Z,-0.6
2018-02-10T06:14:21.048Z,-0.6
2018-02-10T06:15:40.898Z,-0.5
2018-02-10T06:17:00.757Z,-0.5
2018-02-10T06:18:23.170Z,-0.6
2018-02-10T06:19:43.027Z,-0.6
2018-02-10T06:21:10.507Z,-0.6
2018-02-10T06:22:30.384Z,-0.5
2018-02-10T06:23:57.793Z,-0.5
2018-02-10T06:25:20.137Z,-0.5
2018-02-10T06:26:42.506Z,-0.5
2018-02-10T06:28:02.355Z,-0.5
2018-02-10T06:29:24.759Z,-0.5
2018-02-10T06:30:49.656Z,-0.5
2018-02-10T06:32:17.078Z,-0.5
2018-02-10T06:33:36.904Z,-0.5
2018-02-10T06:34:56.762Z,-0.5
2018-02-10T06:36:16.623Z,-0.5
2018-02-10T06:37:41.571Z,-0.5
2018-02-10T06:39:03.961Z,-0.5
2018-02-10T06:40:33.924Z,-0.4
2018-02-10T06:41:56.335Z,-0.4
2018-02-10T06:43:16.197Z,-0.4
2018-02-10T06:44:38.615Z,-0.4
2018-02-10T06:46:08.614Z,-0.4
2018-02-10T06:47:28.469Z,-0.4
2018-02-10T06:48:50.897Z,-0.4
2018-02-10T06:50:10.771Z,-0.4
2018-02-10T06:51:30.582Z,-0.4
2018-02-10T06:52:50.505Z,-0.3
2018-02-10T06:54:10.389Z,-0.3
2018-02-10T06:55:32.766Z,-0.3
2018-02-10T06:56:52.654Z,-0.2
2018-02-10T06:58:17.535Z,-0.2
2018-02-10T06:59:39.910Z,-0.2
2018-02-10T07:01:09.884Z,-0.2
2018-02-10T07:02:34.834Z,-0.2
2018-02-10T07:03:54.665Z,-0.3
2018-02-10T07:05:14.544Z,-0.2
2018-02-10T07:06:34.393Z,-0.3
2018-02-10T07:07:56.800Z,-0.2
2018-02-10T07:09:16.652Z,-0.2
2018-02-10T07:10:39.050Z,-0.2
2018-02-10T07:12:11.589Z,-0.2
2018-02-10T07:13:36.557Z,-0.2
2018-02-10T07:15:01.496Z,-0.2
2018-02-10T07:16:23.902Z,-0.1
2018-02-10T07:17:43.790Z,-0.2
2018-02-10T07:19:03.623Z,-0.2
2018-02-10T07:20:26.032Z,-0.2
2018-02-10T07:21:45.907Z,-0.2
2018-02-10T07:23:18.432Z,-0.2
2018-02-10T07:24:40.825Z,-0.2
2018-02-10T07:26:03.192Z,-0.1
2018-02-10T07:27:25.547Z,-0.1
2018-02-10T07:28:47.923Z,-0.1
2018-02-10T07:30:10.276Z,0
2018-02-10T07:31:42.756Z,0
2018-02-10T07:33:02.571Z,0.1
2018-02-10T07:34:22.396Z,0.1
2018-02-10T07:35:47.307Z,0.1
2018-02-10T07:37:19.787Z,0.2
2018-02-10T07:38:39.633Z,0.3
2018-02-10T07:39:59.450Z,0.4
2018-02-10T07:41:19.263Z,0.4
2018-02-10T07:42:41.651Z,0.5
2018-02-10T07:44:01.499Z,0.6
2018-02-10T07:45:23.876Z,0.5
2018-02-10T07:46:46.298Z,0.6
2018-02-10T07:48:06.144Z,0.6
2018-02-10T07:49:25.996Z,0.6
2018-02-10T07:50:50.903Z,0.7
2018-02-10T07:52:15.816Z,0.6
2018-02-10T07:53:40.708Z,0.6
2018-02-10T07:55:08.120Z,0.7
2018-02-10T07:56:35.509Z,0.8
2018-02-10T07:58:13.094Z,0.9
2018-02-10T07:59:45.592Z,0.9
2018-02-10T08:01:07.998Z,1
2018-02-10T08:02:27.812Z,1
2018-02-10T08:03:55.252Z,1
2018-02-10T08:05:17.579Z,1
2018-02-10T08:06:47.532Z,1
2018-02-10T08:08:07.410Z,1.1
2018-02-10T08:09:27.266Z,1.1
2018-02-10T08:10:47.089Z,1.1
2018-02-10T08:12:14.485Z,1.2
2018-02-10T08:13:34.329Z,1.2
2018-02-10T08:15:06.779Z,1.2
2018-02-10T08:16:41.832Z,1.2
2018-02-10T08:18:01.678Z,1.2
2018-02-10T08:19:21.573Z,1.2
2018-02-10T08:21:04.147Z,1.2
2018-02-10T08:22:36.638Z,1.3
2018-02-10T08:23:56.500Z,1.4
2018-02-10T08:25:18.883Z,1.4
2018-02-10T08:26:41.268Z,1.4
2018-02-10T08:28:03.627Z,1.5
2018-02-10T08:29:26.002Z,1.4
2018-02-10T08:30:56.120Z,1.5
2018-02-10T08:32:15.955Z,1.6
2018-02-10T08:33:38.289Z,1.6
2018-02-10T08:35:03.151Z,1.7
2018-02-10T08:36:25.501Z,1.7
2018-02-10T08:37:45.369Z,1.8
2018-02-10T08:39:05.194Z,1.8
2018-02-10T08:40:32.652Z,1.8
2018-02-10T08:41:55.033Z,1.9
2018-02-10T08:43:19.944Z,2
2018-02-10T08:44:42.292Z,1.9
2018-02-10T08:46:02.152Z,1.9
2018-02-10T08:47:21.963Z,1.9
2018-02-10T08:48:41.772Z,1.8
2018-02-10T08:50:01.608Z,1.8
2018-02-10T08:51:26.523Z,1.7
2018-02-10T08:52:46.367Z,1.6
2018-02-10T08:54:06.281Z,1.3
2018-02-10T08:55:26.133Z,1.1
2018-02-10T08:56:45.977Z,0.9
2018-02-10T08:58:10.895Z,0.7
2018-02-10T08:59:35.825Z,0.6
2018-02-10T09:00:58.173Z,0.5
2018-02-10T09:02:18.033Z,0.6
2018-02-10T09:03:47.982Z,0.8
2018-02-10T09:05:10.381Z,1
2018-02-10T09:06:35.256Z,1.1
2018-02-10T09:07:55.054Z,1.2
2018-02-10T09:09:19.981Z,1.3
2018-02-10T09:10:39.826Z,1.4
2018-02-10T09:11:59.634Z,1.4
2018-02-10T09:13:21.975Z,1.4
2018-02-10T09:14:44.353Z,1.5
2018-02-10T09:16:04.168Z,1.6
2018-02-10T09:17:23.973Z,1.5
2018-02-10T09:18:46.354Z,1.6
2018-02-10T09:20:06.183Z,1.6
2018-02-10T09:21:41.322Z,1.7
2018-02-10T09:23:03.675Z,1.9
2018-02-10T09:24:23.496Z,2.1
2018-02-10T09:25:45.897Z,2.2
2018-02-10T09:27:10.830Z,2.2
2018-02-10T09:28:38.211Z,2.3
2018-02-10T09:29:58.045Z,2.5
2018-02-10T09:31:17.912Z,2.5
2018-02-10T09:32:37.799Z,2.4
2018-02-10T09:34:00.129Z,2.3
2018-02-10T09:35:24.998Z,2.4
2018-02-10T09:36:49.883Z,2.4
2018-02-10T09:38:09.693Z,2.7
2018-02-10T09:39:32.026Z,2.6
2018-02-10T09:40:54.388Z,2.6
2018-02-10T09:42:21.797Z,2.8
2018-02-10T09:43:41.661Z,2.8
2018-02-10T09:45:06.564Z,2.9
2018-02-10T09:46:26.410Z,3
2018-02-10T09:47:56.397Z,3.1
2018-02-10T09:49:16.241Z,3.1
2018-02-10T09:50:41.178Z,3
2018-02-10T09:52:06.060Z,3
2018-02-10T09:53:36.056Z,3.2
2018-02-10T09:54:58.386Z,3.6
2018-02-10T09:56:23.280Z,3.6
2018-02-10T09:57:48.151Z,3.5
2018-02-10T09:59:10.497Z,3.4
2018-02-10T10:00:35.384Z,3.6
2018-02-10T10:01:57.758Z,3.6
2018-02-10T10:03:20.112Z,3.7
2018-02-10T10:04:42.456Z,3.6
2018-02-10T10:06:07.328Z,3.6
2018-02-10T10:07:47.414Z,3.7
2018-02-10T10:09:09.758Z,3.4
2018-02-10T10:10:32.090Z,3
2018-02-10T10:11:51.903Z,2.9
2018-02-10T10:13:11.714Z,2.7
2018-02-10T10:14:31.566Z,2.9
2018-02-10T10:15:56.450Z,3.3
2018-02-10T10:17:18.854Z,3.3
2018-02-10T10:18:38.668Z,3.1
2018-02-10T10:20:03.577Z,3.2
2018-02-10T10:21:36.132Z,3.6
2018-02-10T10:22:58.529Z,3.7
2018-02-10T10:24:38.586Z,3.8
2018-02-10T10:25:58.394Z,4
2018-02-10T10:27:23.252Z,4.2
2018-02-10T10:28:43.068Z,4
2018-02-10T10:30:02.884Z,4
2018-02-10T10:31:25.219Z,4
2018-02-10T10:32:55.225Z,3.6
2018-02-10T10:34:15.093Z,3.5
2018-02-10T10:35:34.898Z,3.5
2018-02-10T10:36:57.265Z,3.6
2018-02-10T10:38:17.065Z,3.3
2018-02-10T10:39:36.874Z,3.2
2018-02-10T10:40:56.719Z,3.3
2018-02-10T10:42:21.607Z,3.6
2018-02-10T10:43:41.451Z,3.6
2018-02-10T10:45:08.874Z,3.8
2018-02-10T10:46:31.250Z,3.8
2018-02-10T10:47:53.627Z,3.7
2018-02-10T10:49:13.441Z,3.7
2018-02-10T10:50:33.245Z,3.6
2018-02-10T10:51:53.092Z,3.4
2018-02-10T10:53:15.434Z,3.5
2018-02-10T10:54:35.241Z,3.5
2018-02-10T10:55:55.073Z,3.5
2018-02-10T10:57:17.411Z,3.6
2018-02-10T10:58:37.216Z,3.4
2018-02-10T10:59:57.086Z,3.2
2018-02-10T11:01:16.899Z,3.3
2018-02-10T11:02:39.231Z,3.4
2018-02-10T11:03:59.094Z,3.2
2018-02-10T11:05:18.928Z,3.2
2018-02-10T11:06:38.725Z,3.1
2018-02-10T11:08:01.130Z,3.2
2018-02-10T11:09:26.039Z,3.2
2018-02-10T11:10:45.938Z,3.1
2018-02-10T11:12:08.335Z,2.9
2018-02-10T11:13:43.368Z,2.8
2018-02-10T11:15:05.757Z,2.8
2018-02-10T11:16:25.570Z,2.7
2018-02-10T11:17:45.460Z,2.8
2018-02-10T11:19:05.294Z,2.9
2018-02-10T11:20:25.115Z,3.1
2018-02-10T11:21:47.468Z,3.1
2018-02-10T11:23:07.341Z,3
2018-02-10T11:24:27.172Z,2.8
2018-02-10T11:25:52.069Z,2.9
2018-02-10T11:27:11.890Z,3
2018-02-10T11:28:31.732Z,3.1
2018-02-10T11:29:51.590Z,3.3
2018-02-10T11:31:11.482Z,3.3
2018-02-10T11:32:33.867Z,3.2
2018-02-10T11:33:58.784Z,3.3
2018-02-10T11:35:18.602Z,3.3
2018-02-10T11:36:38.440Z,3.3
2018-02-10T11:37:58.250Z,3.4
2018-02-10T11:39:18.065Z,3.3
2018-02-10T11:40:48.012Z,3.2
2018-02-10T11:42:12.869Z,3.2
2018-02-10T11:43:32.662Z,3.4
2018-02-10T11:44:52.464Z,3.6
2018-02-10T11:46:14.878Z,3.5
2018-02-10T11:47:34.737Z,3.5
2018-02-10T11:48:57.068Z,3.6
2018-02-10T11:50:16.905Z,3.7
2018-02-10T11:51:36.729Z,3.9
2018-02-10T11:52:56.568Z,3.9
2018-02-10T11:54:16.442Z,3.9
2018-02-10T11:55:36.279Z,3.8
2018-02-10T11:57:01.206Z,3.6
2018-02-10T11:58:23.582Z,3.5
2018-02-10T11:59:43.405Z,3.7
2018-02-10T12:01:03.209Z,3.8
2018-02-10T12:02:25.584Z,3.8
2018-02-10T12:03:45.485Z,3.7
2018-02-10T12:05:07.863Z,3.8
2018-02-10T12:06:27.666Z,3.8
2018-02-10T12:07:50.008Z,3.8
2018-02-10T12:09:12.343Z,3.8
2018-02-10T12:10:34.683Z,4
2018-02-10T12:11:54.502Z,4
2018-02-10T12:13:19.387Z,4
2018-02-10T12:14:41.739Z,4.1
2018-02-10T12:16:01.586Z,3.9
2018-02-10T12:17:21.465Z,3.9
2018-02-10T12:18:46.422Z,3.9
2018-02-10T12:20:06.338Z,3.8
2018-02-10T12:21:28.734Z,3.8
2018-02-10T12:22:48.545Z,3.7
2018-02-10T12:24:08.408Z,3.8
2018-02-10T12:25:28.210Z,4
2018-02-10T12:26:48.019Z,4.4
2018-02-10T12:28:10.376Z,4.8
2018-02-10T12:29:35.245Z,4.9
2018-02-10T12:30:57.579Z,4.7
2018-02-10T12:32:17.376Z,4.6
2018-02-10T12:33:37.235Z,4.8
2018-02-10T12:34:57.062Z,5
2018-02-10T12:36:16.911Z,5.1
2018-02-10T12:37:41.769Z,5
2018-02-10T12:39:04.132Z,5
2018-02-10T12:40:23.990Z,5.9
2018-02-10T12:41:48.908Z,6.2
2018-02-10T12:43:08.714Z,6.6
2018-02-10T16:04:53.477Z,1.9
2018-02-10T16:06:18.415Z,1.8
2018-02-10T16:07:40.823Z,1.8
2018-02-10T16:09:00.683Z,1.7
2018-02-10T16:10:20.541Z,1.7
2018-02-10T16:11:42.961Z,1.6
2018-02-10T16:13:10.399Z,1.7
2018-02-10T16:14:32.776Z,1.8
2018-02-10T16:16:00.259Z,1.7
2018-02-10T16:17:20.111Z,1.7
2018-02-10T16:18:45.005Z,1.7
2018-02-10T16:20:04.821Z,1.6
2018-02-10T16:21:24.647Z,1.5
2018-02-10T16:22:47.007Z,1.4
2018-02-10T16:24:11.913Z,1.3
2018-02-10T16:25:31.760Z,1.2
2018-02-10T16:26:51.638Z,1.2
2018-02-10T16:28:26.734Z,1.1
2018-02-10T16:29:46.585Z,1
2018-02-10T16:31:06.471Z,1
2018-02-10T16:32:31.424Z,1.1
2018-02-10T16:33:51.292Z,1
2018-02-10T16:35:11.140Z,0.9
2018-02-10T16:36:30.999Z,0.9
2018-02-10T16:37:50.881Z,0.8
2018-02-10T16:39:13.296Z,0.7
2018-02-10T16:40:38.220Z,0.7
2018-02-10T16:42:00.633Z,0.6
2018-02-10T16:43:20.479Z,0.6
2018-02-10T16:44:40.337Z,0.6
2018-02-10T16:46:02.677Z,0.6
2018-02-10T16:47:22.520Z,0.6
2018-02-10T16:48:42.357Z,0.6
2018-02-10T16:50:02.244Z,0.7
2018-02-10T16:51:24.700Z,0.7
2018-02-10T16:52:49.611Z,0.8
2018-02-10T16:54:09.482Z,0.8
2018-02-10T16:55:29.372Z,0.8
2018-02-10T16:56:51.747Z,0.8
2018-02-10T16:58:14.154Z,0.8
2018-02-10T16:59:39.034Z,0.8
2018-02-10T17:00:58.900Z,0.7
2018-02-10T17:02:41.577Z,0.6
2018-02-10T17:04:03.991Z,0.6
2018-02-10T17:05:28.880Z,0.6
2018-02-10T17:06:48.693Z,0.7
2018-02-10T17:08:08.564Z,0.8
2018-02-10T17:09:28.421Z,0.8
2018-02-10T17:10:48.253Z,0.9
2018-02-10T17:12:13.143Z,1
2018-02-10T17:13:35.537Z,1
2018-02-10T17:14:55.421Z,1.1
2018-02-10T17:16:22.836Z,1.1
2018-02-10T17:17:42.658Z,1.1
2018-02-10T17:19:02.528Z,1.1
2018-02-10T17:20:29.988Z,1
2018-02-10T17:21:49.829Z,0.9
2018-02-10T17:23:12.219Z,0.9
2018-02-10T17:24:34.589Z,0.9
2018-02-10T17:25:56.929Z,0.9
2018-02-10T17:27:16.774Z,0.8
2018-02-10T17:28:36.772Z,0.9
2018-02-10T17:30:11.787Z,1
2018-02-10T17:31:34.144Z,0.9
2018-02-10T17:32:54.024Z,0.8
2018-02-10T17:34:13.852Z,0.8
2018-02-10T17:35:33.677Z,0.8
2018-02-10T17:36:53.546Z,0.8
2018-02-10T17:38:13.397Z,0.8
2018-02-10T17:39:35.776Z,0.9
2018-02-10T17:40:58.136Z,0.9
2018-02-10T17:42:18.003Z,0.9
2018-02-10T17:43:45.483Z,0.9
2018-02-10T17:45:07.906Z,0.9
2018-02-10T17:46:40.438Z,0.8
2018-02-10T17:48:02.891Z,0.7
2018-02-10T17:49:22.725Z,0.7
2018-02-10T17:50:47.657Z,0.7
2018-02-10T17:52:17.602Z,0.6
2018-02-10T17:53:39.985Z,0.6
2018-02-10T17:55:02.444Z,0.7
2018-02-10T17:56:22.292Z,0.8
2018-02-10T17:57:47.175Z,0.8
2018-02-10T17:59:12.054Z,0.8
2018-02-10T18:00:31.879Z,0.9
2018-02-10T18:02:01.876Z,0.9
2018-02-10T18:03:21.732Z,0.8
2018-02-10T18:04:49.189Z,0.8
2018-02-10T18:06:08.958Z,0.8
2018-02-10T18:07:28.982Z,0.8
2018-02-10T18:08:48.793Z,0.7
2018-02-10T18:10:08.683Z,0.7
2018-02-10T18:11:28.505Z,0.8
2018-02-10T18:12:50.902Z,0.8
2018-02-10T18:14:10.742Z,0.7
2018-02-10T18:15:30.588Z,0.7
2018-02-10T18:16:50.499Z,0.7
2018-02-10T18:18:12.905Z,0.7
2018-02-10T18:19:37.791Z,0.6
2018-02-10T18:20:57.606Z,0.6
2018-02-10T18:22:17.438Z,0.6
2018-02-10T18:23:37.339Z,0.6
2018-02-10T18:24:57.231Z,0.6
2018-02-10T18:26:17.222Z,0.6
2018-02-10T18:27:39.589Z,0.6
2018-02-10T18:29:01.953Z,0.6
2018-02-10T18:30:21.839Z,0.5
2018-02-10T18:31:41.677Z,0.6
2018-02-10T18:33:04.028Z,0.5
2018-02-10T18:34:41.600Z,0.5
2018-02-10T18:36:03.951Z,0.6
2018-02-10T18:37:26.326Z,0.5
2018-02-10T18:38:53.747Z,0.6
2018-02-10T18:40:16.133Z,0.6
2018-02-10T18:41:53.714Z,0.6
2018-02-10T18:43:13.535Z,0.6
2018-02-10T18:44:35.925Z,0.6
2018-02-10T18:45:58.304Z,0.6
2018-02-10T18:47:23.196Z,0.5
2018-02-10T18:48:43.050Z,0.5
2018-02-10T18:50:05.467Z,0.5
2018-02-10T18:51:25.346Z,0.5
2018-02-10T18:52:45.182Z,0.5
2018-02-10T18:54:05.004Z,0.5
2018-02-10T18:55:35.054Z,0.5
2018-02-10T18:57:05.033Z,0.4
2018-02-10T18:58:24.916Z,0.4
2018-02-10T18:59:52.411Z,0.4
2018-02-10T19:01:12.274Z,0.3
2018-02-10T19:02:34.469Z,0.4
2018-02-10T19:03:59.421Z,0.4
2018-02-10T19:05:19.254Z,0.4
2018-02-10T19:06:41.685Z,0.4
2018-02-10T19:08:06.652Z,0.3
2018-02-10T19:09:26.553Z,0.3
2018-02-10T19:10:51.464Z,0.3
2018-02-10T19:12:11.272Z,0.3
2018-02-10T19:13:33.640Z,0.3
2018-02-10T19:14:53.504Z,0.3
2018-02-10T19:16:15.933Z,0.3
2018-02-10T19:17:40.869Z,0.3
2018-02-10T19:19:00.723Z,0.3
2018-02-10T19:20:25.636Z,0.4
2018-02-10T19:21:48.035Z,0.4
2018-02-10T19:23:07.860Z,0.4
2018-02-10T19:24:27.755Z,0.4
2018-02-10T19:25:47.613Z,0.4
2018-02-10T19:27:15.042Z,0.5
2018-02-10T19:28:47.534Z,0.5
2018-02-10T19:30:09.916Z,0.4
2018-02-10T19:31:29.752Z,0.4
2018-02-10T19:32:54.627Z,0.4
2018-02-10T19:34:14.519Z,0.4
2018-02-10T19:35:36.910Z,0.4
2018-02-10T19:36:56.790Z,0.3
2018-02-10T19:38:16.605Z,0.3
2018-02-10T19:39:36.513Z,0.4
2018-02-10T19:40:58.881Z,0.4
2018-02-10T19:42:21.290Z,0.4
2018-02-10T19:43:43.676Z,0.3
2018-02-10T19:45:11.128Z,0.4
2018-02-10T19:46:30.987Z,0.3
2018-02-10T19:47:58.426Z,0.3
2018-02-10T19:49:18.294Z,0.3
2018-02-10T19:50:38.133Z,0.3
2018-02-10T19:51:58.133Z,0.3
2018-02-10T19:53:17.940Z,0.3
2018-02-10T19:54:37.767Z,0.3
2018-02-10T19:55:57.639Z,0.3
2018-02-10T19:57:17.458Z,0.3
2018-02-10T19:58:37.347Z,0.3
2018-02-10T20:00:02.241Z,0.2
2018-02-10T20:01:22.056Z,0.2
2018-02-10T20:02:44.431Z,0.2
2018-02-10T20:04:04.248Z,0.2
2018-02-10T20:05:24.133Z,0.2
2018-02-10T20:06:54.117Z,0.2
2018-02-10T20:08:13.992Z,0.2
2018-02-10T20:09:33.878Z,0.2
2018-02-10T20:10:56.310Z,0.2
2018-02-10T20:12:18.690Z,0.3
2018-02-10T20:13:41.073Z,0.2
2018-02-10T20:15:00.902Z,0.2
2018-02-10T20:16:23.248Z,0.2
2018-02-10T20:17:43.033Z,0.2
2018-02-10T20:19:02.848Z,0.2
2018-02-10T20:20:25.281Z,0.3
2018-02-10T20:21:45.104Z,0.3
2018-02-10T20:23:07.519Z,0.3
2018-02-10T20:24:27.403Z,0.3
2018-02-10T20:25:49.918Z,0.3
2018-02-10T20:27:09.755Z,0.3
2018-02-10T20:28:29.554Z,0.3
2018-02-10T20:29:49.400Z,0.3
2018-02-10T20:31:11.727Z,0.2
2018-02-10T20:32:36.690Z,0.3
2018-02-10T20:33:59.083Z,0.2
2018-02-10T20:35:26.532Z,0.2
2018-02-10T20:36:46.391Z,0.2
2018-02-10T20:38:08.772Z,0.2
2018-02-10T20:39:33.672Z,0.2
2018-02-10T20:40:53.505Z,0.2
2018-02-10T20:42:18.438Z,0.2
2018-02-10T20:43:40.824Z,0.2
2018-02-10T20:45:00.728Z,0.2
2018-02-10T20:46:20.564Z,0.1
2018-02-10T20:47:42.991Z,0.1
2018-02-10T20:49:02.820Z,0.1
2018-02-10T20:50:22.669Z,0.1
2018-02-10T20:51:45.080Z,0.1
2018-02-10T20:53:04.918Z,0.1
2018-02-10T20:54:24.740Z,0.1
2018-02-10T20:55:47.120Z,0.1
2018-02-10T20:57:06.953Z,0.1
2018-02-10T20:58:26.681Z,0.1
2018-02-10T20:59:46.525Z,0.1
2018-02-10T21:01:08.894Z,0
2018-02-10T21:02:31.281Z,0
2018-02-10T21:03:56.262Z,0.1
2018-02-10T21:05:16.145Z,0
2018-02-10T21:06:36.003Z,0.1
2018-02-10T21:07:58.366Z,0.1
2018-02-10T21:09:18.178Z,0.1
2018-02-10T21:10:40.564Z,0.1
2018-02-10T21:12:00.470Z,0.1
2018-02-10T21:13:27.924Z,0.1
2018-02-10T21:14:47.864Z,0.1
2018-02-10T21:16:07.685Z,0.1
2018-02-10T21:17:27.501Z,0.1
2018-02-10T21:18:49.885Z,0.1
2018-02-10T21:20:09.756Z,0.1
2018-02-10T21:21:29.641Z,0.1
2018-02-10T21:22:49.471Z,0.1
2018-02-10T21:24:17.033Z,0.1
2018-02-10T21:25:44.471Z,0.1
2018-02-10T21:27:04.349Z,0.1
2018-02-10T21:28:24.186Z,0.1
2018-02-10T21:29:49.160Z,0.1
2018-02-10T21:31:09.090Z,0.1
2018-02-10T21:32:31.533Z,0.1
2018-02-10T21:33:51.361Z,0
2018-02-10T21:35:21.362Z,0
2018-02-10T21:36:41.271Z,0
2018-02-10T21:38:03.685Z,0
2018-02-10T21:39:26.124Z,0
2018-02-10T21:40:46.013Z,0
2018-02-10T21:42:05.866Z,0
2018-02-10T21:43:25.709Z,0
2018-02-10T21:44:45.563Z,0
2018-02-10T21:46:05.452Z,0
2018-02-10T21:47:32.967Z,0
2018-02-10T21:48:52.880Z,0
2018-02-10T21:50:15.254Z,0
2018-02-10T21:51:37.644Z,0
2018-02-10T21:53:12.694Z,-0.1
2018-02-10T21:54:32.531Z,-0.1
2018-02-10T21:55:57.470Z,-0.1
2018-02-10T21:57:17.365Z,-0.1
2018-02-10T21:58:37.193Z,-0.1
2018-02-10T21:59:59.602Z,-0.1
2018-02-10T22:01:22.032Z,-0.1
2018-02-10T22:02:44.401Z,-0.1
2018-02-10T22:04:04.276Z,-0.1
2018-02-10T22:05:26.723Z,-0.1
2018-02-10T22:06:49.106Z,-0.1
2018-02-10T22:08:09.017Z,-0.1
2018-02-10T22:09:28.915Z,-0.1
2018-02-10T22:10:48.785Z,-0.1
2018-02-10T22:12:11.186Z,-0.1
2018-02-10T22:13:33.556Z,-0.1